Time;durP1;ratioP1;P1;durP2;ratioP2;P2;SDS_P1;SDS_P2;PMS_P1;PMS_P2;Temp;Humidity;BMP_temperature;BMP_pressure;BME280_temperature;BME280_humidity;BME280_pressure;Samples;Min_cycle;Max_cycle;Signal;HPM_P1;HPM_P2
2020/12/18 00:01:44;;;;;;;57.67;31.95;;;;;;;4.07;69.89;100612.88;1801300;79;21166;-38
2020/12/18 00:04:12;;;;;;;54.40;31.45;;;;;;;4.10;69.89;100608.30;1777427;79;21162;-38
2020/12/18 00:07:23;;;;;;;53.83;30.65;;;;;;;4.15;69.75;100607.44;1828735;78;22657;-39
2020/12/18 00:09:51;;;;;;;;;;;;;;;4.06;69.76;100606.47;1801487;79;20968;-38
2020/12/18 00:12:20;;;;;;;53.78;29.72;;;;;;;4.02;69.82;100605.45;1789862;79;21194;-38
2020/12/18 00:14:48;;;;;;;53.53;30.40;;;;;;;3.88;70.06;100603.42;1805389;79;21035;-38
2020/12/18 00:17:17;;;;;;;54.98;32.30;;;;;;;3.84;70.04;100598.91;1776355;80;21016;-38
2020/12/18 00:19:46;;;;;;;52.77;30.17;;;;;;;3.83;70.08;100607.50;1797226;79;21035;-38
2020/12/18 00:22:14;;;;;;;51.42;30.50;;;;;;;3.87;70.09;100609.09;1807192;79;21047;-38
2020/12/18 00:24:43;;;;;;;55.48;30.05;;;;;;;3.90;70.21;100602.61;1800945;79;21380;-38
2020/12/18 00:27:12;;;;;;;47.07;23.03;;;;;;;3.91;70.29;100602.87;1804174;79;21020;-38
2020/12/18 00:29:40;;;;;;;57.20;30.35;;;;;;;3.96;70.29;100605.23;1782525;79;20984;-38
2020/12/18 00:32:08;;;;;;;55.28;29.40;;;;;;;3.96;70.22;100612.75;1807149;79;21019;-38
2020/12/18 00:34:37;;;;;;;50.63;26.35;;;;;;;3.95;70.11;100605.78;1797287;79;21111;-38
2020/12/18 00:37:05;;;;;;;47.55;29.55;;;;;;;3.89;69.98;100606.37;1803702;79;21377;-38
2020/12/18 00:39:34;;;;;;;46.98;25.23;;;;;;;3.80;70.16;100601.38;1807339;79;21023;-38
2020/12/18 00:42:02;;;;;;;49.67;25.92;;;;;;;3.76;70.13;100605.71;1808164;79;21035;-38
2020/12/18 00:44:33;;;;;;;43.87;26.10;;;;;;;3.70;70.26;100604.16;1790359;79;21091;-38
2020/12/18 00:47:01;;;;;;;44.93;26.80;;;;;;;3.60;70.53;100600.77;1777416;79;21141;-38
2020/12/18 00:49:31;;;;;;;;;;;;;;;3.47;70.84;100596.87;1788104;79;21407;-38
2020/12/18 00:52:00;;;;;;;37.45;23.10;;;;;;;3.40;71.15;100591.02;1776315;79;20406;-38
2020/12/18 00:54:28;;;;;;;49.48;25.25;;;;;;;3.23;71.52;100590.64;1776911;79;21283;-38
2020/12/18 00:56:58;;;;;;;47.17;25.72;;;;;;;3.15;71.77;100585.90;1801908;79;21012;-38
2020/12/18 00:59:26;;;;;;;38.92;24.00;;;;;;;3.16;71.84;100587.47;1759004;80;21125;-38
2020/12/18 01:02:04;;;;;;;39.40;23.25;;;;;;;3.20;71.83;100585.29;1776465;79;21533;-38
2020/12/18 01:04:32;;;;;;;45.50;25.20;;;;;;;3.23;71.92;100590.11;1776725;79;21522;-39
2020/12/18 01:07:01;;;;;;;41.18;24.47;;;;;;;3.27;72.06;100589.00;1784802;79;21232;-38
2020/12/18 01:09:33;;;;;;;41.13;23.57;;;;;;;3.29;71.96;100590.88;1790156;79;21028;-39
2020/12/18 01:12:03;;;;;;;40.10;23.12;;;;;;;3.27;71.95;100584.98;1774121;78;21157;-38
2020/12/18 01:14:31;;;;;;;34.80;20.62;;;;;;;3.26;71.96;100580.70;1766194;78;21187;-38
2020/12/18 01:17:00;;;;;;;35.17;20.80;;;;;;;3.21;72.00;100580.73;1794725;79;21183;-38
2020/12/18 01:19:28;;;;;;;32.13;18.75;;;;;;;3.26;71.89;100580.70;1786962;79;20997;-38
2020/12/18 01:21:56;;;;;;;29.32;18.62;;;;;;;3.30;71.74;100569.67;1768540;79;21151;-39
2020/12/18 01:24:27;;;;;;;35.38;19.65;;;;;;;3.30;71.68;100577.70;1764259;79;21135;-38
2020/12/18 01:26:56;;;;;;;30.10;18.87;;;;;;;3.27;71.75;100577.74;1754900;79;21216;-38
2020/12/18 01:29:25;;;;;;;32.55;18.73;;;;;;;3.22;71.72;100575.64;1793417;79;21021;-38
2020/12/18 01:31:55;;;;;;;30.90;18.75;;;;;;;3.18;71.93;100578.09;1771399;79;21005;-38
2020/12/18 01:34:23;;;;;;;25.37;16.15;;;;;;;3.20;72.00;100572.43;1753954;79;21160;-38
2020/12/18 01:36:52;;;;;;;29.05;16.65;;;;;;;3.20;71.96;100561.71;1761092;79;21420;-38
2020/12/18 01:39:30;;;;;;;32.10;18.20;;;;;;;3.31;71.72;100569.93;1809048;78;22772;-38
2020/12/18 01:41:59;;;;;;;30.15;16.40;;;;;;;3.31;71.65;100571.27;1799059;79;21569;-38
2020/12/18 01:44:27;;;;;;;27.55;14.90;;;;;;;3.32;71.63;100572.34;1790716;78;21406;-38
2020/12/18 01:46:57;;;;;;;26.68;15.25;;;;;;;3.31;71.58;100577.97;1786857;78;21581;-38
2020/12/18 01:49:26;;;;;;;22.07;14.55;;;;;;;3.28;71.54;100574.53;1808994;78;28281;-38
2020/12/18 01:51:56;;;;;;;22.20;13.35;;;;;;;3.23;71.62;100572.69;1792416;78;21016;-38
2020/12/18 01:54:38;;;;;;;27.62;14.75;;;;;;;3.23;71.71;100574.56;1884534;76;22766;-38
2020/12/18 01:57:07;;;;;;;20.88;12.33;;;;;;;3.16;71.81;100572.20;1844647;77;20983;-38
2020/12/18 01:59:38;;;;;;;20.55;12.05;;;;;;;3.22;71.71;100571.63;1853077;77;21373;-39
2020/12/18 02:02:11;;;;;;;22.10;12.28;;;;;;;3.32;71.61;100564.84;1795194;78;21020;-38
2020/12/18 02:04:43;;;;;;;21.85;12.10;;;;;;;3.36;71.36;100560.51;1790507;77;21014;-38
2020/12/18 02:07:14;;;;;;;18.90;10.78;;;;;;;3.35;71.42;100565.60;1807684;78;21003;-38
2020/12/18 02:09:44;;;;;;;18.73;11.40;;;;;;;3.37;71.24;100559.44;1783230;79;21024;-38
2020/12/18 02:12:13;;;;;;;19.45;11.33;;;;;;;3.35;71.16;100562.38;1780123;80;21378;-38
2020/12/18 02:14:43;;;;;;;21.80;12.25;;;;;;;3.35;71.29;100556.22;1782539;80;20980;-38
2020/12/18 02:17:12;;;;;;;19.55;11.73;;;;;;;3.37;71.20;100566.13;1789938;78;21020;-38
2020/12/18 02:19:50;;;;;;;19.40;11.80;;;;;;;3.30;71.15;100562.97;1790873;78;21171;-38
2020/12/18 02:22:21;;;;;;;19.05;11.43;;;;;;;3.26;71.23;100557.92;1769643;80;21152;-38
2020/12/18 02:25:07;;;;;;;27.40;11.53;;;;;;;3.36;71.24;100550.59;1859227;76;22850;-38
2020/12/18 02:27:38;;;;;;;17.23;11.57;;;;;;;3.37;71.13;100547.38;1847257;77;21588;-38
2020/12/18 02:30:11;;;;;;;16.57;10.68;;;;;;;3.34;71.13;100546.61;1772512;79;21363;-38
2020/12/18 02:32:47;;;;;;;17.48;11.33;;;;;;;3.24;71.01;100551.52;1819419;78;20996;-38
2020/12/18 02:35:17;;;;;;;19.02;11.35;;;;;;;3.11;71.36;100544.64;1762709;80;21045;-38
2020/12/18 02:37:46;;;;;;;17.07;9.88;;;;;;;3.04;71.61;100546.33;1728462;82;21751;-38
2020/12/18 02:40:15;;;;;;;;;;;;;;;3.01;71.74;100554.91;1778037;79;21040;-38
2020/12/18 02:43:02;;;;;;;15.13;9.48;;;;;;;2.94;71.87;100543.19;1788797;78;21219;-38
2020/12/18 02:45:30;;;;;;;16.37;9.63;;;;;;;3.01;72.04;100550.34;1788072;79;21590;-38
2020/12/18 02:48:09;;;;;;;18.40;9.50;;;;;;;3.10;71.87;100551.11;1827574;78;22850;-38
2020/12/18 02:50:39;;;;;;;15.95;8.95;;;;;;;3.03;71.90;100548.20;1790740;79;21027;-38
2020/12/18 02:53:18;;;;;;;14.50;9.23;;;;;;;2.99;71.95;100555.73;1806163;79;21193;-38
2020/12/18 02:56:05;;;;;;;16.75;10.55;;;;;;;2.94;72.12;100551.77;1807407;79;21008;-38
2020/12/18 02:58:45;;;;;;;17.23;10.78;;;;;;;2.90;72.34;100551.53;1825616;77;22815;-38
2020/12/18 03:01:14;;;;;;;16.57;10.40;;;;;;;2.83;72.35;100555.05;1802518;78;21000;-38
2020/12/18 03:03:44;;;;;;;15.93;9.15;;;;;;;2.78;72.51;100555.08;1758283;80;21094;-38
2020/12/18 03:06:14;;;;;;;;;;;;;;;2.83;72.46;100549.69;1810192;78;21044;-38
2020/12/18 03:08:44;;;;;;;14.70;7.78;;;;;;;2.84;72.51;100543.27;1798255;78;20174;-38
2020/12/18 03:11:13;;;;;;;15.63;9.18;;;;;;;2.73;72.85;100550.30;1785029;78;21051;-38
2020/12/18 03:13:44;;;;;;;14.75;9.45;;;;;;;2.69;72.85;100554.08;1767869;80;21023;-38
2020/12/18 03:16:13;;;;;;;12.82;8.70;;;;;;;2.65;72.95;100554.38;1767729;79;21720;-38
2020/12/18 03:18:49;;;;;;;12.13;8.88;;;;;;;2.66;73.08;100554.64;1802454;78;20956;-38
2020/12/18 03:21:18;;;;;;;13.22;8.95;;;;;;;2.75;72.94;100552.17;1797755;78;21632;-38
2020/12/18 03:24:14;;;;;;;13.98;10.43;;;;;;;2.87;72.77;100552.06;1857049;75;27910;-38
2020/12/18 03:27:01;;;;;;;13.38;9.28;;;;;;;3.24;71.99;100549.37;1836823;77;20972;-38
2020/12/18 03:29:31;;;;;;;12.55;9.10;;;;;;;3.42;71.17;100550.00;1834450;77;21374;-38
2020/12/18 03:32:00;;;;;;;12.70;9.05;;;;;;;3.26;71.22;100544.52;1836973;77;21011;-38
2020/12/18 03:34:29;;;;;;;;;;;;;;;3.13;71.54;100547.86;1862563;77;21038;-38
2020/12/18 03:36:59;;;;;;;12.43;8.60;;;;;;;3.02;71.74;100548.47;1836675;77;20180;-38
2020/12/18 03:39:28;;;;;;;12.20;8.43;;;;;;;2.89;72.00;100547.24;1749398;79;21008;-39
2020/12/18 03:42:26;;;;;;;11.80;8.35;;;;;;;2.90;72.10;100543.49;1863262;76;22687;-39
2020/12/18 03:44:55;;;;;;;11.25;7.80;;;;;;;2.80;72.30;100549.45;1835291;77;21596;-38
2020/12/18 03:47:37;;;;;;;11.38;7.70;;;;;;;2.77;72.55;100545.44;1828147;77;23368;-38
2020/12/18 03:50:13;;;;;;;12.37;7.90;;;;;;;2.74;72.67;100544.67;1814172;78;21015;-38
2020/12/18 03:52:44;;;;;;;12.65;8.78;;;;;;;2.75;72.68;100546.28;1743814;80;22109;-38
2020/12/18 03:55:13;;;;;;;11.48;8.28;;;;;;;2.75;72.71;100544.94;1769949;80;21000;-38
2020/12/18 03:58:00;;;;;;;11.18;7.53;;;;;;;2.84;72.51;100547.28;1739032;80;21073;-38
2020/12/18 04:00:43;;;;;;;9.55;6.95;;;;;;;2.94;72.29;100539.17;1833693;78;22783;-38
2020/12/18 04:03:11;;;;;;;10.50;7.58;;;;;;;2.92;72.21;100543.19;1807238;79;21004;-38
2020/12/18 04:05:40;;;;;;;11.03;7.65;;;;;;;2.92;72.18;100537.30;1807112;79;21614;-38
2020/12/18 04:08:08;;;;;;;10.70;8.10;;;;;;;2.91;72.07;100540.25;1808217;79;21609;-38
2020/12/18 04:10:39;;;;;;;10.50;7.33;;;;;;;2.89;72.04;100535.19;1800440;79;20965;-38
2020/12/18 04:13:36;;;;;;;10.93;8.30;;;;;;;2.89;72.00;100533.05;1841115;75;39448;-38
2020/12/18 04:16:04;;;;;;;10.82;7.10;;;;;;;3.00;71.66;100529.98;1830225;76;21024;-38
2020/12/18 04:18:33;;;;;;;10.08;7.40;;;;;;;3.17;71.16;100534.16;1856929;76;21271;-38
2020/12/18 04:21:01;;;;;;;9.38;6.83;;;;;;;3.15;70.92;100534.98;1854797;76;21054;-38
2020/12/18 04:23:38;;;;;;;10.13;7.17;;;;;;;3.05;70.64;100531.29;1788687;79;21034;-38
2020/12/18 04:26:27;;;;;;;10.08;7.28;;;;;;;2.92;70.87;100537.30;1785010;78;20949;-38
2020/12/18 04:28:55;;;;;;;11.30;6.67;;;;;;;2.84;71.10;100537.91;1786408;79;21102;-38
2020/12/18 04:31:25;;;;;;;9.38;6.05;;;;;;;2.77;70.95;100537.95;1808364;78;22349;-38
2020/12/18 04:33:53;;;;;;;8.53;5.30;;;;;;;2.69;70.57;100539.34;1777617;80;21031;-38
2020/12/18 04:36:23;;;;;;;9.53;5.87;;;;;;;2.64;70.63;100538.05;1773428;80;20999;-38
2020/12/18 04:38:52;;;;;;;9.35;5.80;;;;;;;2.61;70.31;100545.30;1819600;78;21189;-38
2020/12/18 04:41:22;;;;;;;8.55;6.25;;;;;;;2.51;70.51;100549.37;1785588;80;21157;-38
2020/12/18 04:43:55;;;;;;;8.80;5.87;;;;;;;2.39;70.89;100554.25;1758994;79;21285;-38
2020/12/18 04:46:25;;;;;;;8.93;5.90;;;;;;;2.30;71.29;100552.69;1784085;78;21125;-38
2020/12/18 04:48:53;;;;;;;8.60;6.05;;;;;;;2.25;71.02;100551.91;1794251;78;21687;-38
2020/12/18 04:51:26;;;;;;;8.65;5.53;;;;;;;2.22;71.21;100560.50;1783593;79;21562;-38
2020/12/18 04:53:58;;;;;;;10.35;6.28;;;;;;;2.22;71.14;100555.16;1796328;79;21043;-38
2020/12/18 04:56:34;;;;;;;10.08;6.58;;;;;;;2.24;71.33;100555.66;1785483;79;21450;-38
2020/12/18 04:59:15;;;;;;;9.28;6.60;;;;;;;2.27;71.68;100559.95;1823316;77;22813;-38
2020/12/18 05:01:46;;;;;;;13.00;6.80;;;;;;;2.26;71.80;100564.22;1799737;78;21146;-38
2020/12/18 05:04:16;;;;;;;10.80;6.78;;;;;;;2.23;71.96;100561.55;1785024;78;21358;-38
2020/12/18 05:06:47;;;;;;;12.33;6.95;;;;;;;2.18;72.17;100569.05;1804779;78;20988;-38
2020/12/18 05:09:17;;;;;;;9.40;6.17;;;;;;;2.19;72.33;100565.31;1784796;78;21063;-38
2020/12/18 05:11:47;;;;;;;11.22;7.90;;;;;;;2.29;72.29;100567.67;1802092;78;21703;-38
2020/12/18 05:14:16;;;;;;;;;;;;;;;2.35;72.27;100566.59;1767455;79;21004;-38
2020/12/18 05:16:47;;;;;;;13.03;6.65;;;;;;;2.36;72.27;100566.85;1792527;78;21200;-38
2020/12/18 05:19:18;;;;;;;12.53;7.20;;;;;;;2.28;72.32;100568.75;1815019;79;20983;-38
2020/12/18 05:22:03;;;;;;;10.80;6.72;;;;;;;2.32;72.30;100568.48;1803104;78;22793;-38
2020/12/18 05:24:42;;;;;;;12.88;7.55;;;;;;;2.25;72.31;100573.31;1778460;78;21038;-38
2020/12/18 05:27:11;;;;;;;12.47;7.92;;;;;;;2.29;72.35;100576.50;1785319;79;21284;-38
2020/12/18 05:29:42;;;;;;;10.25;7.28;;;;;;;2.36;72.22;100576.22;1744619;80;21071;-38
2020/12/18 05:32:32;;;;;;;11.65;7.62;;;;;;;2.38;72.14;100575.39;1810179;78;20988;-38
2020/12/18 05:35:02;;;;;;;11.10;7.20;;;;;;;2.37;71.97;100581.84;1769015;79;20992;-38
2020/12/18 05:37:40;;;;;;;12.13;7.00;;;;;;;2.41;72.07;100577.53;1813980;77;23273;-38
2020/12/18 05:40:29;;;;;;;12.45;8.08;;;;;;;2.42;71.93;100583.16;1745087;80;21071;-38
2020/12/18 05:43:41;;;;;;;11.65;7.80;;;;;;;2.44;72.05;100582.33;1872978;75;23143;-39
2020/12/18 05:46:32;;;;;;;10.95;7.42;;;;;;;2.48;72.09;100580.69;1822345;76;21185;-38
2020/12/18 05:49:07;;;;;;;12.10;7.72;;;;;;;2.63;71.87;100582.75;1825311;76;21111;-38
2020/12/18 05:51:40;;;;;;;11.43;7.97;;;;;;;2.75;71.82;100589.13;1834450;76;21042;-39
2020/12/18 05:54:19;;;;;;;13.03;7.95;;;;;;;2.82;71.79;100586.91;1843090;76;21063;-38
2020/12/18 05:56:52;;;;;;;13.30;8.30;;;;;;;2.94;71.69;100586.58;1843749;76;21023;-38
2020/12/18 05:59:21;;;;;;;13.93;8.35;;;;;;;2.97;71.37;100589.49;1833525;76;21024;-38
2020/12/18 06:01:53;;;;;;;12.85;8.18;;;;;;;2.97;71.10;100592.17;1833301;77;21204;-38
2020/12/18 06:04:39;;;;;;;14.33;9.40;;;;;;;2.97;71.03;100594.84;1835690;76;21038;-38
2020/12/18 06:07:11;;;;;;;13.28;8.40;;;;;;;2.94;70.93;100598.09;1842789;76;21130;-39
2020/12/18 06:09:58;;;;;;;13.78;8.85;;;;;;;2.95;70.88;100598.91;1849960;76;21166;-38
2020/12/18 06:12:28;;;;;;;14.38;9.43;;;;;;;3.03;70.76;100599.10;1802157;77;21153;-38
2020/12/18 06:14:57;;;;;;;16.57;9.65;;;;;;;3.07;70.65;100600.67;1829496;76;22058;-38
2020/12/18 06:17:28;;;;;;;15.43;9.48;;;;;;;3.05;70.67;100598.80;1828971;77;21448;-38
2020/12/18 06:19:58;;;;;;;16.10;9.53;;;;;;;3.01;70.68;100598.56;1838731;76;21190;-38
2020/12/18 06:22:28;;;;;;;13.40;9.13;;;;;;;2.99;70.73;100602.62;1823976;77;21130;-38
2020/12/18 06:25:08;;;;;;;17.57;10.28;;;;;;;2.99;70.84;100594.05;1814241;78;23330;-38
2020/12/18 06:27:45;;;;;;;14.85;9.80;;;;;;;2.92;70.89;100598.91;1743013;79;21011;-38
2020/12/18 06:30:15;;;;;;;14.18;9.40;;;;;;;2.89;70.96;100595.45;1802574;77;21196;-38
2020/12/18 06:33:03;;;;;;;21.93;11.33;;;;;;;2.93;71.02;100596.48;1737626;82;21305;-38
2020/12/18 06:35:49;;;;;;;17.12;11.00;;;;;;;2.57;71.16;100550.92;1733674;82;21024;-38
2020/12/18 06:38:33;;;;;;;15.32;10.13;;;;;;;2.81;71.45;100601.38;1734816;80;21038;-38
2020/12/18 06:41:24;;;;;;;15.90;9.55;;;;;;;2.79;71.69;100598.20;1701763;82;21040;-38
2020/12/18 06:44:02;;;;;;;16.00;10.18;;;;;;;2.83;71.69;100600.58;1825655;77;22787;-38
2020/12/18 06:46:32;;;;;;;15.35;9.75;;;;;;;2.75;71.65;100599.83;1787602;79;21007;-38
2020/12/18 06:49:15;;;;;;;16.00;9.58;;;;;;;2.71;71.63;100593.41;1794264;79;21391;-38
2020/12/18 06:52:03;;;;;;;14.30;8.80;;;;;;;2.70;71.65;100593.16;1794264;79;20989;-38
2020/12/18 06:54:33;;;;;;;14.68;9.63;;;;;;;2.71;71.68;100593.41;1793618;79;21003;-38
2020/12/18 06:57:24;;;;;;;17.05;9.45;;;;;;;2.72;71.59;100595.02;1793262;79;21057;-38
2020/12/18 07:00:23;;;;;;;13.93;8.88;;;;;;;2.74;71.71;100592.87;1792388;79;21277;-38
2020/12/18 07:02:52;;;;;;;16.87;9.63;;;;;;;2.76;71.70;100597.39;1769674;80;21440;-38
2020/12/18 07:05:45;;;;;;;10.82;7.70;;;;;;;2.73;71.70;100591.27;1785318;78;21040;-38
2020/12/18 07:08:15;;;;;;;12.73;7.12;;;;;;;2.76;71.64;100590.70;1785470;79;21017;-38
2020/12/18 07:10:47;;;;;;;10.32;6.87;;;;;;;2.78;71.21;100597.13;1783922;79;21157;-38
2020/12/18 07:13:20;;;;;;;11.78;8.00;;;;;;;2.80;70.86;100594.45;1786848;79;21444;-38
2020/12/18 07:15:51;;;;;;;11.93;6.65;;;;;;;2.82;70.59;100596.29;1801414;79;21621;-38
2020/12/18 07:18:24;;;;;;;8.75;6.47;;;;;;;2.82;70.34;100592.80;1788912;79;21115;-38
2020/12/18 07:21:00;;;;;;;9.15;6.58;;;;;;;2.78;70.01;100588.55;1769953;79;21223;-38
2020/12/18 07:23:32;;;;;;;11.33;7.12;;;;;;;2.72;69.92;100595.02;1756033;80;21170;-38
2020/12/18 07:26:03;;;;;;;10.53;6.90;;;;;;;2.64;70.21;100594.27;1760493;80;21166;-38
2020/12/18 07:28:37;;;;;;;11.83;7.60;;;;;;;2.59;70.46;100593.76;1764286;80;21577;-38
2020/12/18 07:31:17;;;;;;;11.30;7.28;;;;;;;2.57;70.71;100597.77;1763012;80;21203;-38
2020/12/18 07:33:50;;;;;;;11.45;8.18;;;;;;;2.56;70.83;100596.19;1770290;80;21067;-38
2020/12/18 07:36:18;;;;;;;10.98;7.62;;;;;;;2.60;70.87;100598.58;1760182;80;21059;-38
2020/12/18 07:38:46;;;;;;;12.70;8.18;;;;;;;2.67;70.80;100603.61;1763911;80;21134;-38
2020/12/18 07:41:15;;;;;;;14.93;9.75;;;;;;;2.65;70.69;100600.42;1759601;80;21357;-38
2020/12/18 07:43:46;;;;;;;14.10;9.10;;;;;;;2.66;70.79;100598.81;1769959;80;21649;-38
2020/12/18 07:48:55;;;;;;;15.28;10.05;;;;;;;2.77;71.15;100595.52;1827670;77;22671;-38
2020/12/18 07:51:24;;;;;;;13.68;8.63;;;;;;;2.77;71.04;100592.84;1802489;78;21028;-38
2020/12/18 07:53:53;;;;;;;10.72;7.78;;;;;;;2.84;70.69;100600.04;1783946;79;21775;-38
2020/12/18 07:56:22;;;;;;;9.53;7.00;;;;;;;2.94;70.45;100599.97;1791644;79;20985;-38
2020/12/18 07:59:02;;;;;;;10.32;6.33;;;;;;;2.97;69.82;100597.53;1791749;78;21008;-38
2020/12/18 08:01:33;;;;;;;10.95;7.47;;;;;;;3.01;69.57;100594.55;1730180;81;21634;-41
2020/12/18 08:04:11;;;;;;;10.58;7.15;;;;;;;3.04;69.50;100600.70;1737619;80;20986;-41
2020/12/18 08:06:44;;;;;;;10.70;7.17;;;;;;;3.06;69.51;100605.23;1740129;81;21825;-41
2020/12/18 08:09:14;;;;;;;12.05;8.55;;;;;;;3.09;69.57;100605.77;1764039;80;21033;-42
2020/12/18 08:11:50;;;;;;;12.73;8.18;;;;;;;3.04;69.53;100604.73;1747097;80;21059;-42
2020/12/18 08:14:17;;;;;;;;;;;;;;;3.02;69.68;100602.85;1757717;80;21186;-41
2020/12/18 08:16:45;;;;;;;11.63;7.55;;;;;;;3.02;69.71;100606.07;1761438;80;20220;-42
2020/12/18 08:19:14;;;;;;;9.58;6.90;;;;;;;3.00;69.84;100603.66;1760794;80;21520;-41
2020/12/18 08:21:46;;;;;;;9.78;6.67;;;;;;;3.08;69.68;100606.84;1735606;81;21175;-41
2020/12/18 08:24:33;;;;;;;10.70;7.47;;;;;;;3.10;69.47;100602.02;1749665;80;22172;-42
2020/12/18 08:27:05;;;;;;;10.75;7.45;;;;;;;3.08;69.58;100606.84;1707103;82;21582;-43
2020/12/18 08:29:34;;;;;;;10.38;7.30;;;;;;;3.05;69.90;100598.80;1736350;80;21190;-41
2020/12/18 08:32:03;;;;;;;11.85;7.58;;;;;;;2.59;69.91;100513.98;1730290;81;21286;-42
2020/12/18 08:34:33;;;;;;;11.73;8.00;;;;;;;3.17;69.79;100590.42;1739820;80;21119;-41
2020/12/18 08:37:02;;;;;;;11.43;8.55;;;;;;;3.20;69.68;100586.63;1734223;80;21159;-42
2020/12/18 08:39:32;;;;;;;11.75;8.48;;;;;;;3.22;69.50;100587.70;1724702;81;21149;-41
2020/12/18 08:42:05;;;;;;;12.70;7.87;;;;;;;3.23;69.48;100574.56;1729921;82;21139;-42
2020/12/18 08:44:39;;;;;;;12.73;8.03;;;;;;;3.26;69.80;100574.00;1732958;81;21269;-41
2020/12/18 08:47:27;;;;;;;10.70;7.72;;;;;;;3.22;69.93;100573.77;1732461;81;21191;-41
2020/12/18 08:49:56;;;;;;;12.58;8.78;;;;;;;3.25;70.05;100573.73;1760810;78;21395;-41
2020/12/18 08:52:29;;;;;;;9.65;6.37;;;;;;;3.28;70.01;100578.01;1792346;78;21188;-42
2020/12/18 08:55:04;;;;;;;13.32;9.08;;;;;;;3.30;70.06;100569.67;1793529;79;21154;-42
2020/12/18 08:57:33;;;;;;;12.95;9.20;;;;;;;3.30;70.07;100570.47;1751904;80;21465;-41
2020/12/18 09:00:19;;;;;;;12.68;8.68;;;;;;;3.30;70.04;100572.34;1804632;78;21134;-41
2020/12/18 09:02:56;;;;;;;9.88;7.70;;;;;;;3.33;69.85;100569.13;1798003;78;21180;-41
2020/12/18 09:05:30;;;;;;;13.35;8.50;;;;;;;3.34;69.46;100567.48;1802112;78;21199;-41
2020/12/18 09:08:06;;;;;;;13.28;8.45;;;;;;;3.32;69.58;100560.81;1786845;79;21183;-41
2020/12/18 09:10:45;;;;;;;13.28;8.38;;;;;;;3.30;69.58;100564.30;1808488;79;21039;-41
2020/12/18 09:13:26;;;;;;;10.78;7.15;;;;;;;3.25;69.81;100558.45;1772502;79;21170;-41
2020/12/18 09:16:00;;;;;;;10.63;7.12;;;;;;;3.26;69.85;100557.38;1737281;81;21126;-42
2020/12/18 09:18:34;;;;;;;12.05;7.47;;;;;;;3.22;70.03;100554.20;1733821;81;21087;-41
2020/12/18 09:21:14;;;;;;;9.78;6.58;;;;;;;3.21;70.16;100549.92;1755503;80;21095;-42
2020/12/18 09:23:46;;;;;;;9.35;6.17;;;;;;;3.25;70.07;100545.05;1802538;79;21260;-42
2020/12/18 09:26:25;;;;;;;9.75;6.35;;;;;;;3.27;69.62;100548.80;1788083;78;21055;-42
2020/12/18 09:28:53;;;;;;;9.23;6.67;;;;;;;3.23;69.97;100545.89;1796582;78;21031;-42
2020/12/18 09:31:23;;;;;;;9.98;7.42;;;;;;;3.17;69.87;100545.67;1801949;78;21632;-41
2020/12/18 09:33:55;;;;;;;8.95;6.65;;;;;;;3.05;69.69;100542.00;1792725;78;21088;-41
2020/12/18 09:36:24;;;;;;;9.95;7.28;;;;;;;2.93;70.06;100553.64;1801579;78;21403;-41
2020/12/18 09:38:53;;;;;;;12.70;7.60;;;;;;;2.82;70.54;100550.77;1797724;78;21150;-42
2020/12/18 09:41:22;;;;;;;9.48;7.05;;;;;;;2.79;70.79;100549.99;1794174;78;21146;-41
2020/12/18 09:43:50;;;;;;;10.65;8.35;;;;;;;2.81;70.86;100554.52;1805443;78;21547;-41
2020/12/18 09:46:22;;;;;;;12.15;8.68;;;;;;;2.81;70.73;100558.53;1799638;78;21138;-41
2020/12/18 09:48:49;;;;;;;9.63;7.95;;;;;;;2.74;71.07;100546.01;1801314;78;21472;-41
2020/12/18 09:51:19;;;;;;;;;;;;;;;2.70;71.58;100554.34;1800443;78;21031;-42
2020/12/18 09:53:47;;;;;;;9.70;7.15;;;;;;;2.68;71.66;100551.12;1805374;78;20270;-41
2020/12/18 09:56:15;;;;;;;10.28;7.50;;;;;;;2.53;71.77;100545.87;1794837;78;21107;-41
2020/12/18 09:58:44;;;;;;;11.25;7.35;;;;;;;2.53;71.66;100544.53;1737250;82;21602;-41
2020/12/18 10:01:20;;;;;;;9.33;6.85;;;;;;;2.57;71.72;100541.55;1753669;80;21302;-41
2020/12/18 10:03:50;;;;;;;10.50;6.87;;;;;;;2.66;71.81;100541.25;1742853;80;21209;-41
2020/12/18 10:06:26;;;;;;;9.93;6.92;;;;;;;2.70;71.69;100548.98;1759570;81;21598;-42
2020/12/18 10:08:55;;;;;;;9.73;7.60;;;;;;;2.66;71.49;100537.23;1764260;80;21131;-42
2020/12/18 10:11:28;;;;;;;9.90;8.63;;;;;;;2.60;71.80;100543.70;1748761;82;21672;-42
2020/12/18 10:13:58;;;;;;;8.98;7.33;;;;;;;2.54;71.95;100550.16;1725777;81;21262;-41
2020/12/18 10:16:27;;;;;;;10.72;8.15;;;;;;;2.52;72.18;100550.42;1795793;78;21168;-41
2020/12/18 10:18:56;;;;;;;10.85;7.90;;;;;;;2.61;72.18;100542.63;1800383;78;21025;-41
2020/12/18 10:21:24;;;;;;;10.78;8.45;;;;;;;2.69;72.00;100550.59;1744090;81;21166;-41
2020/12/18 10:23:52;;;;;;;11.28;8.00;;;;;;;2.65;71.86;100546.34;1776400;80;21611;-42
2020/12/18 10:26:21;;;;;;;10.65;8.60;;;;;;;2.59;72.11;100534.86;1766645;80;21164;-42
2020/12/18 10:28:49;;;;;;;11.80;9.15;;;;;;;2.59;72.35;100542.89;1764638;80;21075;-41
2020/12/18 10:31:19;;;;;;;11.08;8.65;;;;;;;2.57;72.35;100533.52;1767218;80;21098;-41
2020/12/18 10:33:49;;;;;;;15.28;8.88;;;;;;;2.60;72.43;100532.45;1778129;80;21044;-41
2020/12/18 10:36:17;;;;;;;10.72;8.58;;;;;;;2.70;72.25;100531.58;1769556;80;21110;-41
2020/12/18 10:38:46;;;;;;;12.30;10.03;;;;;;;2.72;72.33;100532.09;1777917;80;21384;-42
2020/12/18 10:41:14;;;;;;;13.00;9.00;;;;;;;2.75;72.52;100526.19;1794500;78;21016;-41
2020/12/18 10:43:45;;;;;;;11.97;9.30;;;;;;;2.79;72.50;100522.41;1789920;78;21149;-41
2020/12/18 10:46:14;;;;;;;12.90;9.25;;;;;;;2.83;72.56;100525.59;1796363;78;21000;-42
2020/12/18 10:48:43;;;;;;;15.50;10.35;;;;;;;2.85;72.50;100522.64;1810130;78;21115;-41
2020/12/18 10:51:11;;;;;;;14.95;9.58;;;;;;;2.84;72.20;100517.82;1802487;79;21183;-41
2020/12/18 10:53:39;;;;;;;11.55;8.58;;;;;;;2.83;72.17;100520.77;1775263;79;21558;-42
2020/12/18 10:56:09;;;;;;;12.28;9.53;;;;;;;2.89;72.26;100525.81;1786781;79;21032;-42
2020/12/18 10:58:38;;;;;;;14.53;11.18;;;;;;;2.94;72.28;100517.74;1793338;79;21641;-39
2020/12/18 11:01:06;;;;;;;17.35;11.63;;;;;;;2.99;72.20;100504.31;1793157;79;21454;-39
2020/12/18 11:03:35;;;;;;;17.25;11.65;;;;;;;3.07;71.99;100505.56;1793942;79;21546;-39
2020/12/18 11:06:04;;;;;;;15.75;10.98;;;;;;;3.06;71.74;100506.10;1796486;79;21123;-39
2020/12/18 11:08:33;;;;;;;17.37;11.10;;;;;;;3.08;71.86;100505.03;1799678;79;21099;-40
2020/12/18 11:11:01;;;;;;;16.15;11.15;;;;;;;3.04;71.61;100501.59;1784016;79;21445;-39
2020/12/18 11:13:30;;;;;;;15.23;11.28;;;;;;;3.05;71.76;100504.50;1750497;81;21122;-39
2020/12/18 11:15:59;;;;;;;16.32;11.50;;;;;;;3.13;71.75;100498.29;1750707;80;21342;-40
2020/12/18 11:18:27;;;;;;;19.48;12.30;;;;;;;3.17;71.63;100507.36;1731117;80;21160;-39
2020/12/18 11:20:55;;;;;;;20.92;12.60;;;;;;;3.19;71.59;100503.87;1719982;82;21193;-39
2020/12/18 11:23:23;;;;;;;17.98;12.88;;;;;;;3.20;71.47;100505.44;1735155;82;21179;-39
2020/12/18 11:25:53;;;;;;;19.40;13.68;;;;;;;3.17;71.35;100500.66;1737952;80;21175;-39
2020/12/18 11:28:23;;;;;;;20.15;13.62;;;;;;;3.15;71.31;100497.48;1716301;82;21301;-39
2020/12/18 11:30:52;;;;;;;25.02;13.60;;;;;;;3.13;71.51;100498.29;1793825;79;21170;-36
2020/12/18 11:33:21;;;;;;;20.72;12.93;;;;;;;3.20;71.42;100503.56;1794830;79;21108;-36
2020/12/18 11:35:50;;;;;;;19.50;12.95;;;;;;;3.30;71.31;100502.13;1783591;79;21111;-36
2020/12/18 11:38:18;;;;;;;21.55;14.13;;;;;;;3.41;71.30;100498.81;1790774;79;21190;-36
2020/12/18 11:40:46;;;;;;;22.05;13.85;;;;;;;3.46;71.27;100496.08;1782442;79;21372;-36
2020/12/18 11:43:14;;;;;;;20.17;15.08;;;;;;;3.47;71.15;100490.44;1797436;79;21017;-36
2020/12/18 11:45:43;;;;;;;24.40;16.50;;;;;;;3.47;70.81;100495.80;1786366;79;21103;-36
2020/12/18 11:48:11;;;;;;;19.92;15.45;;;;;;;3.39;70.87;100495.60;1801472;79;21116;-36
2020/12/18 11:50:41;;;;;;;;;;;;;;;3.28;71.14;100494.13;1762392;78;20966;-36
2020/12/18 11:53:10;;;;;;;22.67;14.75;;;;;;;3.26;71.28;100496.28;1769866;80;21374;-36
2020/12/18 11:55:39;;;;;;;24.98;15.20;;;;;;;3.24;71.41;100505.16;1780931;80;21212;-36